sensor_id;sensor_type;location;lat;lon;timestamp;P1;durP1;ratioP1;P2;durP2;ratioP2
32501;SDS011;18952;52.516;13.460;2023-02-23T00:00:00;44.88;;;20.77;;
32501;SDS011;18952;52.516;13.460;2023-02-23T00:02:26;45.28;;;20.90;;
32501;SDS011;18952;52.516;13.460;2023-02-23T00:04:53;47.60;;;21.23;;
32501;SDS011;18952;52.516;13.460;2023-02-23T00:07:20;45.20;;;20.83;;
32501;SDS011;18952;52.516;13.460;2023-02-23T00:09:47;46.05;;;20.95;;
32501;SDS011;18952;52.516;13.460;2023-02-23T00:12:14;51.45;;;21.65;;
32501;SDS011;18952;52.516;13.460;2023-02-23T00:14:40;47.75;;;21.00;;
32501;SDS011;18952;52.516;13.460;2023-02-23T00:17:07;51.05;;;22.50;;
32501;SDS011;18952;52.516;13.460;2023-02-23T00:19:34;45.33;;;21.45;;
32501;SDS011;18952;52.516;13.460;2023-02-23T00:22:01;50.72;;;22.60;;
32501;SDS011;18952;52.516;13.460;2023-02-23T00:24:27;41.25;;;20.85;;
32501;SDS011;18952;52.516;13.460;2023-02-23T00:26:54;44.28;;;21.98;;
32501;SDS011;18952;52.516;13.460;2023-02-23T00:29:22;43.17;;;21.80;;
32501;SDS011;18952;52.516;13.460;2023-02-23T00:31:49;42.97;;;22.35;;
32501;SDS011;18952;52.516;13.460;2023-02-23T00:34:18;46.25;;;21.77;;
32501;SDS011;18952;52.516;13.460;2023-02-23T00:36:47;49.55;;;23.65;;
32501;SDS011;18952;52.516;13.460;2023-02-23T00:39:16;49.92;;;21.60;;
32501;SDS011;18952;52.516;13.460;2023-02-23T00:41:43;49.95;;;23.25;;
32501;SDS011;18952;52.516;13.460;2023-02-23T00:44:10;47.78;;;22.73;;
32501;SDS011;18952;52.516;13.460;2023-02-23T00:46:38;50.10;;;23.02;;
32501;SDS011;18952;52.516;13.460;2023-02-23T00:49:05;49.10;;;22.58;;
32501;SDS011;18952;52.516;13.460;2023-02-23T00:51:32;42.60;;;21.83;;
32501;SDS011;18952;52.516;13.460;2023-02-23T00:53:59;51.63;;;23.35;;
32501;SDS011;18952;52.516;13.460;2023-02-23T00:56:26;49.55;;;22.63;;
32501;SDS011;18952;52.516;13.460;2023-02-23T00:58:53;49.10;;;23.05;;
32501;SDS011;18952;52.516;13.460;2023-02-23T01:01:20;49.15;;;22.80;;
32501;SDS011;18952;52.516;13.460;2023-02-23T01:03:48;45.28;;;22.67;;
32501;SDS011;18952;52.516;13.460;2023-02-23T01:06:16;50.58;;;24.10;;
32501;SDS011;18952;52.516;13.460;2023-02-23T01:08:43;48.53;;;23.92;;
32501;SDS011;18952;52.516;13.460;2023-02-23T01:11:22;47.42;;;23.92;;
32501;SDS011;18952;52.516;13.460;2023-02-23T01:13:51;47.47;;;24.05;;
32501;SDS011;18952;52.516;13.460;2023-02-23T01:16:21;46.65;;;23.02;;
32501;SDS011;18952;52.516;13.460;2023-02-23T01:18:49;49.50;;;23.77;;
32501;SDS011;18952;52.516;13.460;2023-02-23T01:21:18;51.33;;;24.33;;
32501;SDS011;18952;52.516;13.460;2023-02-23T01:24:05;49.15;;;23.60;;
32501;SDS011;18952;52.516;13.460;2023-02-23T01:26:36;46.95;;;23.77;;
32501;SDS011;18952;52.516;13.460;2023-02-23T01:29:08;42.17;;;22.85;;
32501;SDS011;18952;52.516;13.460;2023-02-23T01:31:39;50.05;;;23.80;;
32501;SDS011;18952;52.516;13.460;2023-02-23T01:34:11;47.10;;;23.83;;
32501;SDS011;18952;52.516;13.460;2023-02-23T01:36:39;53.05;;;23.70;;
32501;SDS011;18952;52.516;13.460;2023-02-23T01:39:09;43.85;;;22.80;;
32501;SDS011;18952;52.516;13.460;2023-02-23T01:41:38;50.35;;;23.63;;
32501;SDS011;18952;52.516;13.460;2023-02-23T01:44:06;50.17;;;24.38;;
32501;SDS011;18952;52.516;13.460;2023-02-23T01:46:53;45.53;;;23.38;;
32501;SDS011;18952;52.516;13.460;2023-02-23T01:49:22;50.95;;;24.42;;
32501;SDS011;18952;52.516;13.460;2023-02-23T01:51:54;46.80;;;23.23;;
32501;SDS011;18952;52.516;13.460;2023-02-23T01:54:34;46.67;;;24.02;;
32501;SDS011;18952;52.516;13.460;2023-02-23T01:57:04;53.95;;;25.30;;
32501;SDS011;18952;52.516;13.460;2023-02-23T02:02:08;52.42;;;24.33;;
32501;SDS011;18952;52.516;13.460;2023-02-23T02:04:36;49.10;;;23.98;;
32501;SDS011;18952;52.516;13.460;2023-02-23T02:07:06;49.60;;;25.02;;
32501;SDS011;18952;52.516;13.460;2023-02-23T02:09:33;49.22;;;23.88;;
32501;SDS011;18952;52.516;13.460;2023-02-23T02:12:00;46.55;;;24.13;;
32501;SDS011;18952;52.516;13.460;2023-02-23T02:14:27;51.80;;;24.88;;
32501;SDS011;18952;52.516;13.460;2023-02-23T02:17:06;48.42;;;23.88;;
32501;SDS011;18952;52.516;13.460;2023-02-23T02:20:19;56.03;;;24.50;;
32501;SDS011;18952;52.516;13.460;2023-02-23T02:43:29;50.03;;;24.25;;
32501;SDS011;18952;52.516;13.460;2023-02-23T02:46:03;51.63;;;23.63;;
32501;SDS011;18952;52.516;13.460;2023-02-23T02:51:21;51.15;;;24.13;;
32501;SDS011;18952;52.516;13.460;2023-02-23T02:56:35;48.35;;;24.52;;
32501;SDS011;18952;52.516;13.460;2023-02-23T02:59:09;50.13;;;25.02;;
32501;SDS011;18952;52.516;13.460;2023-02-23T03:01:46;52.60;;;24.85;;
32501;SDS011;18952;52.516;13.460;2023-02-23T03:04:20;53.92;;;23.85;;
32501;SDS011;18952;52.516;13.460;2023-02-23T03:06:54;55.58;;;24.90;;
32501;SDS011;18952;52.516;13.460;2023-02-23T03:12:08;53.05;;;24.67;;
32501;SDS011;18952;52.516;13.460;2023-02-23T03:17:59;53.05;;;24.88;;
32501;SDS011;18952;52.516;13.460;2023-02-23T03:20:46;46.60;;;25.00;;
32501;SDS011;18952;52.516;13.460;2023-02-23T03:23:39;53.10;;;25.63;;
32501;SDS011;18952;52.516;13.460;2023-02-23T03:29:15;48.05;;;25.08;;
32501;SDS011;18952;52.516;13.460;2023-02-23T03:31:58;48.67;;;24.65;;
32501;SDS011;18952;52.516;13.460;2023-02-23T03:34:45;51.42;;;25.40;;
32501;SDS011;18952;52.516;13.460;2023-02-23T03:37:34;53.50;;;25.90;;
32501;SDS011;18952;52.516;13.460;2023-02-23T03:40:06;50.83;;;26.00;;
32501;SDS011;18952;52.516;13.460;2023-02-23T03:42:38;50.95;;;25.67;;
32501;SDS011;18952;52.516;13.460;2023-02-23T03:45:07;49.42;;;24.73;;
32501;SDS011;18952;52.516;13.460;2023-02-23T03:47:40;52.70;;;25.48;;
32501;SDS011;18952;52.516;13.460;2023-02-23T03:50:13;50.95;;;26.27;;
32501;SDS011;18952;52.516;13.460;2023-02-23T03:52:48;58.28;;;25.85;;
32501;SDS011;18952;52.516;13.460;2023-02-23T03:55:20;51.15;;;24.83;;
32501;SDS011;18952;52.516;13.460;2023-02-23T03:57:52;52.80;;;26.05;;
32501;SDS011;18952;52.516;13.460;2023-02-23T04:00:27;55.10;;;25.00;;
32501;SDS011;18952;52.516;13.460;2023-02-23T04:03:02;50.47;;;25.63;;
32501;SDS011;18952;52.516;13.460;2023-02-23T04:05:32;53.53;;;26.02;;
32501;SDS011;18952;52.516;13.460;2023-02-23T04:08:03;53.72;;;26.00;;
32501;SDS011;18952;52.516;13.460;2023-02-23T04:10:34;53.90;;;26.48;;
32501;SDS011;18952;52.516;13.460;2023-02-23T04:13:16;53.13;;;25.98;;
32501;SDS011;18952;52.516;13.460;2023-02-23T04:18:26;49.15;;;25.73;;
32501;SDS011;18952;52.516;13.460;2023-02-23T04:20:55;56.70;;;26.63;;
32501;SDS011;18952;52.516;13.460;2023-02-23T04:23:25;56.30;;;27.88;;
32501;SDS011;18952;52.516;13.460;2023-02-23T04:25:53;53.53;;;26.35;;
32501;SDS011;18952;52.516;13.460;2023-02-23T04:28:24;55.00;;;26.63;;
32501;SDS011;18952;52.516;13.460;2023-02-23T04:30:52;49.05;;;26.20;;
32501;SDS011;18952;52.516;13.460;2023-02-23T04:33:19;49.30;;;26.20;;
32501;SDS011;18952;52.516;13.460;2023-02-23T04:35:47;52.72;;;26.83;;
32501;SDS011;18952;52.516;13.460;2023-02-23T04:38:14;51.22;;;26.63;;
32501;SDS011;18952;52.516;13.460;2023-02-23T04:40:41;51.15;;;25.98;;
32501;SDS011;18952;52.516;13.460;2023-02-23T04:43:10;50.72;;;26.83;;
32501;SDS011;18952;52.516;13.460;2023-02-23T04:45:37;57.00;;;27.50;;
32501;SDS011;18952;52.516;13.460;2023-02-23T04:48:04;49.92;;;26.35;;
32501;SDS011;18952;52.516;13.460;2023-02-23T04:50:32;50.70;;;26.15;;
32501;SDS011;18952;52.516;13.460;2023-02-23T04:52:59;48.30;;;26.50;;
32501;SDS011;18952;52.516;13.460;2023-02-23T04:55:26;51.78;;;26.70;;
32501;SDS011;18952;52.516;13.460;2023-02-23T04:57:56;53.03;;;26.10;;
32501;SDS011;18952;52.516;13.460;2023-02-23T05:00:25;48.72;;;26.00;;
32501;SDS011;18952;52.516;13.460;2023-02-23T05:02:52;49.60;;;26.50;;
32501;SDS011;18952;52.516;13.460;2023-02-23T05:05:19;56.83;;;26.10;;
32501;SDS011;18952;52.516;13.460;2023-02-23T05:07:46;53.90;;;25.58;;
32501;SDS011;18952;52.516;13.460;2023-02-23T05:10:13;48.38;;;25.27;;
32501;SDS011;18952;52.516;13.460;2023-02-23T05:12:39;53.30;;;25.73;;
32501;SDS011;18952;52.516;13.460;2023-02-23T05:15:06;48.58;;;26.08;;
32501;SDS011;18952;52.516;13.460;2023-02-23T05:17:33;48.17;;;26.17;;
32501;SDS011;18952;52.516;13.460;2023-02-23T05:20:02;49.70;;;25.15;;
32501;SDS011;18952;52.516;13.460;2023-02-23T05:22:29;57.08;;;26.65;;
32501;SDS011;18952;52.516;13.460;2023-02-23T05:24:56;62.97;;;29.15;;
32501;SDS011;18952;52.516;13.460;2023-02-23T05:27:23;55.30;;;26.92;;
32501;SDS011;18952;52.516;13.460;2023-02-23T05:29:50;51.28;;;25.75;;
32501;SDS011;18952;52.516;13.460;2023-02-23T05:32:17;53.78;;;27.27;;
32501;SDS011;18952;52.516;13.460;2023-02-23T05:34:44;51.33;;;26.58;;
32501;SDS011;18952;52.516;13.460;2023-02-23T05:37:11;54.42;;;26.58;;
32501;SDS011;18952;52.516;13.460;2023-02-23T05:39:37;56.20;;;27.25;;
32501;SDS011;18952;52.516;13.460;2023-02-23T05:42:04;51.90;;;26.10;;
32501;SDS011;18952;52.516;13.460;2023-02-23T05:44:31;43.08;;;25.75;;
32501;SDS011;18952;52.516;13.460;2023-02-23T05:46:58;52.33;;;25.70;;
32501;SDS011;18952;52.516;13.460;2023-02-23T05:49:25;49.22;;;25.63;;
32501;SDS011;18952;52.516;13.460;2023-02-23T05:51:52;53.72;;;27.08;;
32501;SDS011;18952;52.516;13.460;2023-02-23T05:54:18;54.40;;;26.77;;
32501;SDS011;18952;52.516;13.460;2023-02-23T05:56:45;50.65;;;25.80;;
32501;SDS011;18952;52.516;13.460;2023-02-23T05:59:15;56.85;;;26.85;;
32501;SDS011;18952;52.516;13.460;2023-02-23T06:01:42;50.85;;;27.10;;
32501;SDS011;18952;52.516;13.460;2023-02-23T06:04:09;52.13;;;26.88;;
32501;SDS011;18952;52.516;13.460;2023-02-23T06:06:38;48.42;;;25.70;;
32501;SDS011;18952;52.516;13.460;2023-02-23T06:09:05;51.63;;;25.67;;
32501;SDS011;18952;52.516;13.460;2023-02-23T06:11:32;50.92;;;26.60;;
32501;SDS011;18952;52.516;13.460;2023-02-23T06:13:59;49.85;;;26.83;;
32501;SDS011;18952;52.516;13.460;2023-02-23T06:16:26;52.83;;;26.42;;
32501;SDS011;18952;52.516;13.460;2023-02-23T06:18:53;55.67;;;27.13;;
32501;SDS011;18952;52.516;13.460;2023-02-23T06:21:20;54.85;;;26.95;;
32501;SDS011;18952;52.516;13.460;2023-02-23T06:23:47;55.85;;;26.45;;
32501;SDS011;18952;52.516;13.460;2023-02-23T06:26:14;49.45;;;25.67;;
32501;SDS011;18952;52.516;13.460;2023-02-23T06:28:44;50.60;;;27.50;;
32501;SDS011;18952;52.516;13.460;2023-02-23T06:31:11;52.25;;;28.00;;
32501;SDS011;18952;52.516;13.460;2023-02-23T06:33:37;54.50;;;27.38;;
32501;SDS011;18952;52.516;13.460;2023-02-23T06:36:04;54.75;;;27.17;;
32501;SDS011;18952;52.516;13.460;2023-02-23T06:38:31;51.15;;;26.45;;
32501;SDS011;18952;52.516;13.460;2023-02-23T06:40:58;60.00;;;26.92;;
32501;SDS011;18952;52.516;13.460;2023-02-23T06:43:25;55.30;;;26.90;;
32501;SDS011;18952;52.516;13.460;2023-02-23T06:45:51;51.97;;;27.05;;
32501;SDS011;18952;52.516;13.460;2023-02-23T06:48:18;55.80;;;27.08;;
32501;SDS011;18952;52.516;13.460;2023-02-23T06:50:45;54.67;;;26.98;;
32501;SDS011;18952;52.516;13.460;2023-02-23T06:53:11;49.65;;;26.13;;
32501;SDS011;18952;52.516;13.460;2023-02-23T06:55:38;53.30;;;27.40;;
32501;SDS011;18952;52.516;13.460;2023-02-23T06:58:05;52.08;;;27.23;;
32501;SDS011;18952;52.516;13.460;2023-02-23T07:00:32;51.63;;;25.67;;
32501;SDS011;18952;52.516;13.460;2023-02-23T07:02:59;55.83;;;27.58;;
32501;SDS011;18952;52.516;13.460;2023-02-23T07:05:26;53.75;;;30.33;;
32501;SDS011;18952;52.516;13.460;2023-02-23T07:07:53;56.45;;;27.65;;
32501;SDS011;18952;52.516;13.460;2023-02-23T07:10:19;60.03;;;29.05;;
32501;SDS011;18952;52.516;13.460;2023-02-23T07:12:46;56.03;;;27.75;;
32501;SDS011;18952;52.516;13.460;2023-02-23T07:15:13;53.25;;;27.10;;
32501;SDS011;18952;52.516;13.460;2023-02-23T07:17:40;52.33;;;26.73;;
32501;SDS011;18952;52.516;13.460;2023-02-23T07:20:07;60.42;;;27.75;;
32501;SDS011;18952;52.516;13.460;2023-02-23T07:22:34;53.10;;;27.40;;
32501;SDS011;18952;52.516;13.460;2023-02-23T07:25:04;54.45;;;28.05;;
32501;SDS011;18952;52.516;13.460;2023-02-23T07:27:34;55.05;;;26.00;;
32501;SDS011;18952;52.516;13.460;2023-02-23T07:30:01;55.70;;;27.17;;
32501;SDS011;18952;52.516;13.460;2023-02-23T07:32:29;60.45;;;28.42;;
32501;SDS011;18952;52.516;13.460;2023-02-23T07:34:56;54.17;;;30.83;;
32501;SDS011;18952;52.516;13.460;2023-02-23T07:37:22;58.58;;;35.50;;
32501;SDS011;18952;52.516;13.460;2023-02-23T07:39:49;56.75;;;30.05;;
32501;SDS011;18952;52.516;13.460;2023-02-23T07:42:16;55.33;;;28.63;;
32501;SDS011;18952;52.516;13.460;2023-02-23T07:44:43;49.67;;;26.98;;
32501;SDS011;18952;52.516;13.460;2023-02-23T07:47:10;51.42;;;26.83;;
32501;SDS011;18952;52.516;13.460;2023-02-23T07:49:37;59.72;;;27.67;;
32501;SDS011;18952;52.516;13.460;2023-02-23T07:52:03;66.55;;;29.50;;
32501;SDS011;18952;52.516;13.460;2023-02-23T07:54:30;61.55;;;28.80;;
32501;SDS011;18952;52.516;13.460;2023-02-23T07:56:57;52.78;;;27.45;;
32501;SDS011;18952;52.516;13.460;2023-02-23T07:59:24;51.17;;;27.20;;
32501;SDS011;18952;52.516;13.460;2023-02-23T08:01:51;51.58;;;26.40;;
32501;SDS011;18952;52.516;13.460;2023-02-23T08:04:18;55.22;;;27.92;;
32501;SDS011;18952;52.516;13.460;2023-02-23T08:06:44;58.72;;;27.92;;
32501;SDS011;18952;52.516;13.460;2023-02-23T08:09:14;59.25;;;28.20;;
32501;SDS011;18952;52.516;13.460;2023-02-23T08:11:40;53.58;;;27.50;;
32501;SDS011;18952;52.516;13.460;2023-02-23T08:14:07;55.67;;;28.17;;
32501;SDS011;18952;52.516;13.460;2023-02-23T08:16:34;56.17;;;27.27;;
32501;SDS011;18952;52.516;13.460;2023-02-23T08:19:01;52.17;;;27.35;;
32501;SDS011;18952;52.516;13.460;2023-02-23T08:21:28;51.33;;;26.90;;
32501;SDS011;18952;52.516;13.460;2023-02-23T08:23:56;49.75;;;27.25;;
32501;SDS011;18952;52.516;13.460;2023-02-23T08:26:23;48.90;;;27.13;;
32501;SDS011;18952;52.516;13.460;2023-02-23T08:28:51;60.08;;;27.27;;
32501;SDS011;18952;52.516;13.460;2023-02-23T08:31:18;56.50;;;27.48;;
32501;SDS011;18952;52.516;13.460;2023-02-23T08:33:47;50.40;;;27.85;;
32501;SDS011;18952;52.516;13.460;2023-02-23T08:36:14;48.63;;;28.00;;
32501;SDS011;18952;52.516;13.460;2023-02-23T08:38:41;55.70;;;27.75;;
32501;SDS011;18952;52.516;13.460;2023-02-23T08:41:08;58.10;;;28.90;;
32501;SDS011;18952;52.516;13.460;2023-02-23T08:43:35;56.85;;;28.20;;
32501;SDS011;18952;52.516;13.460;2023-02-23T08:46:01;51.05;;;28.25;;
32501;SDS011;18952;52.516;13.460;2023-02-23T08:48:28;56.50;;;27.95;;
32501;SDS011;18952;52.516;13.460;2023-02-23T08:50:56;57.17;;;29.60;;
32501;SDS011;18952;52.516;13.460;2023-02-23T08:53:24;66.95;;;27.63;;
32501;SDS011;18952;52.516;13.460;2023-02-23T08:55:55;55.05;;;27.13;;
32501;SDS011;18952;52.516;13.460;2023-02-23T08:58:23;52.63;;;27.98;;
32501;SDS011;18952;52.516;13.460;2023-02-23T09:00:49;56.97;;;28.17;;
32501;SDS011;18952;52.516;13.460;2023-02-23T09:03:16;53.63;;;26.88;;
32501;SDS011;18952;52.516;13.460;2023-02-23T09:05:43;56.50;;;28.40;;
32501;SDS011;18952;52.516;13.460;2023-02-23T09:08:10;49.13;;;27.23;;
32501;SDS011;18952;52.516;13.460;2023-02-23T09:10:39;51.42;;;27.80;;
32501;SDS011;18952;52.516;13.460;2023-02-23T09:13:05;50.17;;;28.08;;
32501;SDS011;18952;52.516;13.460;2023-02-23T09:15:32;45.28;;;27.15;;
32501;SDS011;18952;52.516;13.460;2023-02-23T09:18:00;54.47;;;29.23;;
32501;SDS011;18952;52.516;13.460;2023-02-23T09:20:27;59.13;;;30.98;;
32501;SDS011;18952;52.516;13.460;2023-02-23T09:22:54;50.72;;;28.52;;
32501;SDS011;18952;52.516;13.460;2023-02-23T09:25:21;51.70;;;28.60;;
32501;SDS011;18952;52.516;13.460;2023-02-23T09:27:49;52.92;;;28.85;;
32501;SDS011;18952;52.516;13.460;2023-02-23T09:30:18;51.50;;;28.33;;
32501;SDS011;18952;52.516;13.460;2023-02-23T09:32:46;54.60;;;28.70;;
32501;SDS011;18952;52.516;13.460;2023-02-23T09:35:14;56.95;;;27.92;;
32501;SDS011;18952;52.516;13.460;2023-02-23T09:37:43;54.63;;;27.75;;
32501;SDS011;18952;52.516;13.460;2023-02-23T09:40:19;54.10;;;29.40;;
32501;SDS011;18952;52.516;13.460;2023-02-23T09:48:08;58.38;;;28.42;;
32501;SDS011;18952;52.516;13.460;2023-02-23T09:50:38;53.60;;;29.42;;
32501;SDS011;18952;52.516;13.460;2023-02-23T09:53:14;55.33;;;29.95;;
32501;SDS011;18952;52.516;13.460;2023-02-23T09:55:58;55.28;;;27.02;;
32501;SDS011;18952;52.516;13.460;2023-02-23T09:58:27;59.38;;;29.00;;
32501;SDS011;18952;52.516;13.460;2023-02-23T10:02:00;52.47;;;29.33;;
32501;SDS011;18952;52.516;13.460;2023-02-23T10:03:57;56.33;;;29.35;;
32501;SDS011;18952;52.516;13.460;2023-02-23T10:06:25;48.55;;;28.48;;
32501;SDS011;18952;52.516;13.460;2023-02-23T10:09:03;57.60;;;29.67;;
32501;SDS011;18952;52.516;13.460;2023-02-23T10:11:45;48.95;;;28.73;;
32501;SDS011;18952;52.516;13.460;2023-02-23T10:14:39;49.40;;;28.38;;
32501;SDS011;18952;52.516;13.460;2023-02-23T10:22:44;49.00;;;29.23;;
32501;SDS011;18952;52.516;13.460;2023-02-23T10:25:14;48.22;;;28.85;;
32501;SDS011;18952;52.516;13.460;2023-02-23T10:27:49;51.65;;;29.13;;
32501;SDS011;18952;52.516;13.460;2023-02-23T10:35:41;49.13;;;30.55;;
32501;SDS011;18952;52.516;13.460;2023-02-23T10:38:15;52.97;;;31.48;;
32501;SDS011;18952;52.516;13.460;2023-02-23T10:43:21;51.22;;;31.92;;
32501;SDS011;18952;52.516;13.460;2023-02-23T10:45:49;54.70;;;31.25;;
32501;SDS011;18952;52.516;13.460;2023-02-23T10:48:19;53.95;;;31.33;;
32501;SDS011;18952;52.516;13.460;2023-02-23T10:50:51;48.97;;;31.55;;
32501;SDS011;18952;52.516;13.460;2023-02-23T10:53:23;51.05;;;31.60;;
32501;SDS011;18952;52.516;13.460;2023-02-23T10:56:11;49.30;;;31.73;;
32501;SDS011;18952;52.516;13.460;2023-02-23T11:01:11;54.13;;;33.15;;
32501;SDS011;18952;52.516;13.460;2023-02-23T11:03:45;53.13;;;32.47;;
32501;SDS011;18952;52.516;13.460;2023-02-23T11:06:36;50.72;;;32.28;;
32501;SDS011;18952;52.516;13.460;2023-02-23T11:09:25;55.42;;;33.75;;
32501;SDS011;18952;52.516;13.460;2023-02-23T11:12:19;53.97;;;32.60;;
32501;SDS011;18952;52.516;13.460;2023-02-23T11:14:54;50.53;;;32.60;;
32501;SDS011;18952;52.516;13.460;2023-02-23T11:20:04;49.40;;;32.63;;
32501;SDS011;18952;52.516;13.460;2023-02-23T11:22:35;49.55;;;33.13;;
32501;SDS011;18952;52.516;13.460;2023-02-23T11:25:14;52.13;;;32.42;;
32501;SDS011;18952;52.516;13.460;2023-02-23T11:27:53;49.33;;;33.10;;
32501;SDS011;18952;52.516;13.460;2023-02-23T11:30:20;53.28;;;33.03;;
32501;SDS011;18952;52.516;13.460;2023-02-23T11:32:49;47.30;;;32.17;;
32501;SDS011;18952;52.516;13.460;2023-02-23T11:37:47;54.22;;;32.20;;
32501;SDS011;18952;52.516;13.460;2023-02-23T11:40:18;53.40;;;33.08;;
32501;SDS011;18952;52.516;13.460;2023-02-23T11:42:56;50.80;;;32.72;;
32501;SDS011;18952;52.516;13.460;2023-02-23T11:48:42;55.40;;;33.28;;
32501;SDS011;18952;52.516;13.460;2023-02-23T11:51:50;53.42;;;34.47;;
32501;SDS011;18952;52.516;13.460;2023-02-23T11:54:24;58.00;;;34.95;;
32501;SDS011;18952;52.516;13.460;2023-02-23T11:56:51;55.47;;;33.05;;
32501;SDS011;18952;52.516;13.460;2023-02-23T11:59:18;50.20;;;33.45;;
32501;SDS011;18952;52.516;13.460;2023-02-23T12:01:52;56.35;;;34.20;;
32501;SDS011;18952;52.516;13.460;2023-02-23T12:04:31;54.88;;;33.88;;
32501;SDS011;18952;52.516;13.460;2023-02-23T12:10:15;51.65;;;32.67;;
32501;SDS011;18952;52.516;13.460;2023-02-23T12:13:02;54.50;;;34.45;;
32501;SDS011;18952;52.516;13.460;2023-02-23T12:16:12;54.55;;;33.75;;
32501;SDS011;18952;52.516;13.460;2023-02-23T12:18:47;45.80;;;32.38;;
32501;SDS011;18952;52.516;13.460;2023-02-23T12:21:38;50.17;;;32.22;;
32501;SDS011;18952;52.516;13.460;2023-02-23T12:24:25;50.15;;;33.22;;
32501;SDS011;18952;52.516;13.460;2023-02-23T12:29:35;50.55;;;33.35;;
32501;SDS011;18952;52.516;13.460;2023-02-23T12:32:18;49.75;;;32.22;;
32501;SDS011;18952;52.516;13.460;2023-02-23T12:35:09;48.63;;;31.27;;
32501;SDS011;18952;52.516;13.460;2023-02-23T12:37:56;50.47;;;32.72;;
32501;SDS011;18952;52.516;13.460;2023-02-23T12:40:38;50.38;;;32.28;;
32501;SDS011;18952;52.516;13.460;2023-02-23T12:43:13;49.75;;;33.00;;
32501;SDS011;18952;52.516;13.460;2023-02-23T12:46:11;47.17;;;30.88;;
32501;SDS011;18952;52.516;13.460;2023-02-23T12:48:45;45.58;;;31.55;;
32501;SDS011;18952;52.516;13.460;2023-02-23T12:51:20;48.35;;;32.60;;
32501;SDS011;18952;52.516;13.460;2023-02-23T12:53:50;50.03;;;32.97;;
32501;SDS011;18952;52.516;13.460;2023-02-23T13:01:33;49.47;;;32.60;;
32501;SDS011;18952;52.516;13.460;2023-02-23T13:06:55;46.42;;;32.90;;
32501;SDS011;18952;52.516;13.460;2023-02-23T13:09:36;47.30;;;33.22;;
32501;SDS011;18952;52.516;13.460;2023-02-23T13:12:33;50.30;;;33.15;;
32501;SDS011;18952;52.516;13.460;2023-02-23T13:15:11;49.05;;;33.05;;
32501;SDS011;18952;52.516;13.460;2023-02-23T13:18:21;49.50;;;33.38;;
32501;SDS011;18952;52.516;13.460;2023-02-23T13:21:02;48.67;;;32.67;;
32501;SDS011;18952;52.516;13.460;2023-02-23T13:31:25;48.33;;;32.10;;
32501;SDS011;18952;52.516;13.460;2023-02-23T13:34:05;51.42;;;34.08;;
32501;SDS011;18952;52.516;13.460;2023-02-23T13:36:36;51.80;;;32.63;;
32501;SDS011;18952;52.516;13.460;2023-02-23T13:52:47;48.13;;;32.33;;
32501;SDS011;18952;52.516;13.460;2023-02-23T13:58:13;47.60;;;33.15;;
32501;SDS011;18952;52.516;13.460;2023-02-23T14:00:42;52.38;;;34.15;;
32501;SDS011;18952;52.516;13.460;2023-02-23T14:03:22;45.22;;;34.40;;
32501;SDS011;18952;52.516;13.460;2023-02-23T14:05:54;47.50;;;34.65;;
32501;SDS011;18952;52.516;13.460;2023-02-23T14:08:34;47.60;;;34.38;;
32501;SDS011;18952;52.516;13.460;2023-02-23T14:11:04;43.85;;;33.92;;
32501;SDS011;18952;52.516;13.460;2023-02-23T14:13:44;48.40;;;34.90;;
32501;SDS011;18952;52.516;13.460;2023-02-23T14:16:24;48.75;;;34.75;;
32501;SDS011;18952;52.516;13.460;2023-02-23T14:22:01;52.65;;;37.13;;
32501;SDS011;18952;52.516;13.460;2023-02-23T14:24:31;50.47;;;36.77;;
32501;SDS011;18952;52.516;13.460;2023-02-23T14:27:18;52.42;;;37.15;;
32501;SDS011;18952;52.516;13.460;2023-02-23T14:32:39;51.13;;;38.20;;
32501;SDS011;18952;52.516;13.460;2023-02-23T14:40:33;54.00;;;39.72;;
32501;SDS011;18952;52.516;13.460;2023-02-23T14:43:31;58.72;;;42.25;;
32501;SDS011;18952;52.516;13.460;2023-02-23T14:46:00;60.22;;;43.50;;
32501;SDS011;18952;52.516;13.460;2023-02-23T14:48:28;61.15;;;44.58;;
32501;SDS011;18952;52.516;13.460;2023-02-23T14:51:08;62.15;;;45.28;;
32501;SDS011;18952;52.516;13.460;2023-02-23T14:53:42;65.95;;;46.28;;
32501;SDS011;18952;52.516;13.460;2023-02-23T14:56:21;65.75;;;47.22;;
32501;SDS011;18952;52.516;13.460;2023-02-23T14:59:05;66.25;;;45.72;;
32501;SDS011;18952;52.516;13.460;2023-02-23T15:01:33;67.45;;;47.65;;
32501;SDS011;18952;52.516;13.460;2023-02-23T15:04:08;69.22;;;48.13;;
32501;SDS011;18952;52.516;13.460;2023-02-23T15:06:41;63.75;;;48.20;;
32501;SDS011;18952;52.516;13.460;2023-02-23T15:09:14;68.82;;;49.53;;
32501;SDS011;18952;52.516;13.460;2023-02-23T15:11:49;69.95;;;50.67;;
32501;SDS011;18952;52.516;13.460;2023-02-23T15:14:16;71.72;;;50.70;;
32501;SDS011;18952;52.516;13.460;2023-02-23T15:16:54;70.05;;;50.47;;
32501;SDS011;18952;52.516;13.460;2023-02-23T15:19:21;72.45;;;51.95;;
32501;SDS011;18952;52.516;13.460;2023-02-23T15:21:51;72.78;;;50.70;;
32501;SDS011;18952;52.516;13.460;2023-02-23T15:24:25;68.30;;;51.38;;
32501;SDS011;18952;52.516;13.460;2023-02-23T15:27:22;70.15;;;52.35;;
32501;SDS011;18952;52.516;13.460;2023-02-23T15:29:54;75.00;;;54.30;;
32501;SDS011;18952;52.516;13.460;2023-02-23T15:32:21;76.70;;;56.00;;
32501;SDS011;18952;52.516;13.460;2023-02-23T15:34:50;74.30;;;56.20;;
32501;SDS011;18952;52.516;13.460;2023-02-23T15:39:58;80.00;;;54.55;;
32501;SDS011;18952;52.516;13.460;2023-02-23T15:43:09;77.97;;;55.53;;
32501;SDS011;18952;52.516;13.460;2023-02-23T15:45:22;76.75;;;55.10;;
32501;SDS011;18952;52.516;13.460;2023-02-23T15:48:05;75.80;;;55.03;;
32501;SDS011;18952;52.516;13.460;2023-02-23T15:50:41;75.90;;;53.53;;
32501;SDS011;18952;52.516;13.460;2023-02-23T15:53:19;78.97;;;54.55;;
32501;SDS011;18952;52.516;13.460;2023-02-23T15:55:53;76.85;;;54.65;;
32501;SDS011;18952;52.516;13.460;2023-02-23T15:58:25;84.28;;;55.42;;
32501;SDS011;18952;52.516;13.460;2023-02-23T16:00:59;78.72;;;54.22;;
32501;SDS011;18952;52.516;13.460;2023-02-23T16:03:37;78.55;;;55.05;;
32501;SDS011;18952;52.516;13.460;2023-02-23T16:06:07;80.03;;;55.92;;
32501;SDS011;18952;52.516;13.460;2023-02-23T16:08:59;79.35;;;56.55;;
32501;SDS011;18952;52.516;13.460;2023-02-23T16:11:37;80.05;;;57.38;;
32501;SDS011;18952;52.516;13.460;2023-02-23T16:14:11;83.78;;;58.67;;
32501;SDS011;18952;52.516;13.460;2023-02-23T16:16:41;86.90;;;58.03;;
32501;SDS011;18952;52.516;13.460;2023-02-23T16:19:09;83.72;;;58.55;;
32501;SDS011;18952;52.516;13.460;2023-02-23T16:21:39;89.28;;;58.40;;
32501;SDS011;18952;52.516;13.460;2023-02-23T16:24:11;93.50;;;61.95;;
32501;SDS011;18952;52.516;13.460;2023-02-23T16:26:44;96.25;;;60.53;;
32501;SDS011;18952;52.516;13.460;2023-02-23T16:29:24;90.03;;;62.83;;
32501;SDS011;18952;52.516;13.460;2023-02-23T16:32:00;93.05;;;63.90;;
32501;SDS011;18952;52.516;13.460;2023-02-23T16:34:35;92.22;;;64.57;;
32501;SDS011;18952;52.516;13.460;2023-02-23T16:37:15;97.00;;;63.92;;